AVA9474 SKBO-SKCC
Flight info
| Callsign | AVA9474 |
|---|---|
| Flight time | 0h 41m |
| Altitude | 29000 |
| Route | OSUSU4R OSUSU DCT BUV DCT ESNUT ESNUT2A |
| Aircraft | A20N/M-SDE2E3FGHIRWXY/LB1 |
Departure
| Time | 2026-04-25 01:50 |
|---|---|
| Airport | El Dorado International Airport (SKBO) |
Arrival
| Time | 2026-04-25 02:32 |
|---|---|
| Airport | Camilo Daza International Airport (SKCC) |
| Time | Latitude | Longitude | Altitude | Speed | Heading |
|---|---|---|---|---|---|
| 2026-04-25 01:11 | 4.69741 | -74.14658 | 8342 ft | 0 kts | 217° |
| 2026-04-25 01:32 | 4.69747 | -74.14653 | 8369 ft | 0 kts | 283° |
| 2026-04-25 01:32 | 4.69745 | -74.14647 | 8369 ft | 0 kts | 334° |
| 2026-04-25 01:32 | 4.69745 | -74.14646 | 8369 ft | 2 kts | 339° |
| 2026-04-25 01:32 | 4.69733 | -74.14653 | 8370 ft | 2 kts | 137° |
| 2026-04-25 01:33 | 4.69741 | -74.14657 | 8369 ft | 0 kts | 220° |
| 2026-04-25 01:33 | 4.69746 | -74.14653 | 8369 ft | 1 kts | 220° |
| 2026-04-25 01:33 | 4.69752 | -74.14648 | 8369 ft | 1 kts | 220° |
| 2026-04-25 01:34 | 4.69759 | -74.14642 | 8370 ft | 1 kts | 220° |
| 2026-04-25 01:34 | 4.69765 | -74.14637 | 8370 ft | 1 kts | 220° |
| 2026-04-25 01:34 | 4.69771 | -74.14632 | 8370 ft | 1 kts | 229° |
| 2026-04-25 01:34 | 4.69776 | -74.14625 | 8370 ft | 1 kts | 261° |
| 2026-04-25 01:35 | 4.69777 | -74.14616 | 8370 ft | 1 kts | 295° |
| 2026-04-25 01:35 | 4.69776 | -74.14614 | 8370 ft | 0 kts | 312° |
| 2026-04-25 01:35 | 4.69779 | -74.14618 | 8370 ft | 1 kts | 309° |
| 2026-04-25 01:35 | 4.69783 | -74.14622 | 8370 ft | 1 kts | 309° |
| 2026-04-25 01:36 | 4.69786 | -74.14627 | 8370 ft | 1 kts | 309° |
| 2026-04-25 01:36 | 4.69788 | -74.14629 | 8370 ft | 0 kts | 309° |
| 2026-04-25 01:40 | 4.69794 | -74.14637 | 8370 ft | 5 kts | 308° |
| 2026-04-25 01:40 | 4.69824 | -74.14675 | 8369 ft | 9 kts | 308° |
| 2026-04-25 01:40 | 4.69866 | -74.14732 | 8370 ft | 11 kts | 304° |
| 2026-04-25 01:41 | 4.69908 | -74.14780 | 8370 ft | 5 kts | 334° |
| 2026-04-25 01:41 | 4.69950 | -74.14774 | 8370 ft | 8 kts | 32° |
| 2026-04-25 01:41 | 4.70001 | -74.14735 | 8370 ft | 11 kts | 39° |
| 2026-04-25 01:41 | 4.70065 | -74.14684 | 8370 ft | 13 kts | 37° |
| 2026-04-25 01:42 | 4.70147 | -74.14623 | 8370 ft | 16 kts | 35° |
| 2026-04-25 01:42 | 4.70242 | -74.14551 | 8370 ft | 18 kts | 34° |
| 2026-04-25 01:42 | 4.70347 | -74.14470 | 8370 ft | 20 kts | 37° |
| 2026-04-25 01:42 | 4.70436 | -74.14404 | 8370 ft | 13 kts | 34° |
| 2026-04-25 01:43 | 4.70508 | -74.14434 | 8370 ft | 13 kts | 305° |
| 2026-04-25 01:43 | 4.70565 | -74.14514 | 8370 ft | 15 kts | 307° |
| 2026-04-25 01:43 | 4.70632 | -74.14603 | 8370 ft | 17 kts | 307° |
| 2026-04-25 01:43 | 4.70707 | -74.14701 | 8370 ft | 19 kts | 307° |
| 2026-04-25 01:44 | 4.70789 | -74.14809 | 8370 ft | 20 kts | 307° |
| 2026-04-25 01:44 | 4.70878 | -74.14925 | 8370 ft | 22 kts | 308° |
| 2026-04-25 01:44 | 4.70970 | -74.15048 | 8370 ft | 23 kts | 307° |
| 2026-04-25 01:44 | 4.71062 | -74.15169 | 8370 ft | 19 kts | 307° |
| 2026-04-25 01:45 | 4.71120 | -74.15219 | 8370 ft | 7 kts | 346° |
| 2026-04-25 01:45 | 4.71182 | -74.15225 | 8370 ft | 10 kts | 353° |
| 2026-04-25 01:45 | 4.71212 | -74.15228 | 8370 ft | 0 kts | 353° |
| 2026-04-25 01:48 | 4.71216 | -74.15229 | 8370 ft | 2 kts | 353° |
| 2026-04-25 01:49 | 4.71244 | -74.15232 | 8370 ft | 6 kts | 353° |
| 2026-04-25 01:49 | 4.71295 | -74.15229 | 8370 ft | 9 kts | 26° |
| 2026-04-25 01:49 | 4.71309 | -74.15169 | 8369 ft | 11 kts | 112° |
| 2026-04-25 01:49 | 4.71230 | -74.15067 | 8369 ft | 43 kts | 128° |
| 2026-04-25 01:50 | 4.70912 | -74.14644 | 8368 ft | 107 kts | 127° |
| 2026-04-25 01:50 | 4.70566 | -74.14185 | 8370 ft | 141 kts | 127° |
| 2026-04-25 01:50 | 4.69866 | -74.13261 | 8384 ft | 183 kts | 127° |
| 2026-04-25 01:50 | 4.69116 | -74.12278 | 9102 ft | 172 kts | 127° |
| 2026-04-25 01:51 | 4.68371 | -74.11304 | 9590 ft | 183 kts | 127° |
| 2026-04-25 01:51 | 4.67668 | -74.10201 | 10060 ft | 188 kts | 106° |
| 2026-04-25 01:51 | 4.67656 | -74.08874 | 10459 ft | 200 kts | 70° |
| 2026-04-25 01:51 | 4.68295 | -74.07872 | 10639 ft | 215 kts | 40° |
| 2026-04-25 01:52 | 4.69024 | -74.07396 | 10747 ft | 225 kts | 22° |
| 2026-04-25 01:52 | 4.70609 | -74.07004 | 10904 ft | 245 kts | 7° |
| 2026-04-25 01:52 | 4.72363 | -74.06765 | 11032 ft | 266 kts | 7° |
| 2026-04-25 01:52 | 4.74239 | -74.06434 | 11417 ft | 276 kts | 11° |
| 2026-04-25 01:53 | 4.76147 | -74.05996 | 11691 ft | 291 kts | 13° |
| 2026-04-25 01:53 | 4.78184 | -74.05455 | 11902 ft | 315 kts | 14° |
| 2026-04-25 01:53 | 4.80341 | -74.04845 | 12015 ft | 321 kts | 15° |
| 2026-04-25 01:53 | 4.82471 | -74.04230 | 11951 ft | 317 kts | 15° |
| 2026-04-25 01:54 | 4.84584 | -74.03617 | 12143 ft | 318 kts | 15° |
| 2026-04-25 01:54 | 4.86752 | -74.02991 | 12380 ft | 320 kts | 15° |
| 2026-04-25 01:54 | 4.88882 | -74.02378 | 12619 ft | 321 kts | 15° |
| 2026-04-25 01:54 | 4.91021 | -74.01764 | 12999 ft | 325 kts | 15° |
| 2026-04-25 01:55 | 4.93228 | -74.01132 | 13919 ft | 326 kts | 15° |
| 2026-04-25 01:55 | 4.95393 | -74.00512 | 14682 ft | 330 kts | 15° |
| 2026-04-25 01:55 | 4.97616 | -73.99874 | 15422 ft | 334 kts | 15° |
| 2026-04-25 01:55 | 4.99885 | -73.99224 | 16168 ft | 338 kts | 15° |
| 2026-04-25 01:56 | 5.02139 | -73.98578 | 16878 ft | 342 kts | 15° |
| 2026-04-25 01:56 | 5.04388 | -73.97976 | 17552 ft | 346 kts | 13° |
| 2026-04-25 01:56 | 5.06768 | -73.97392 | 18252 ft | 349 kts | 12° |
| 2026-04-25 01:56 | 5.09185 | -73.96810 | 18906 ft | 353 kts | 12° |
| 2026-04-25 01:57 | 5.13974 | -73.95638 | 20086 ft | 360 kts | 13° |
| 2026-04-25 01:57 | 5.16417 | -73.95034 | 20664 ft | 364 kts | 13° |
| 2026-04-25 01:57 | 5.18885 | -73.94420 | 21230 ft | 367 kts | 13° |
| 2026-04-25 01:58 | 5.21379 | -73.93798 | 21811 ft | 371 kts | 13° |
| 2026-04-25 01:58 | 5.23896 | -73.93171 | 22361 ft | 374 kts | 13° |
| 2026-04-25 01:58 | 5.26433 | -73.92539 | 22914 ft | 378 kts | 13° |
| 2026-04-25 01:58 | 5.29032 | -73.91892 | 23479 ft | 382 kts | 13° |
| 2026-04-25 01:59 | 5.31623 | -73.91247 | 23972 ft | 385 kts | 13° |
| 2026-04-25 01:59 | 5.34214 | -73.90602 | 24196 ft | 389 kts | 13° |
| 2026-04-25 01:59 | 5.36848 | -73.89946 | 24273 ft | 389 kts | 13° |
| 2026-04-25 01:59 | 5.39476 | -73.89291 | 24283 ft | 389 kts | 13° |
| 2026-04-25 02:00 | 5.42097 | -73.88637 | 24276 ft | 389 kts | 13° |
| 2026-04-25 02:00 | 5.44724 | -73.87982 | 24279 ft | 388 kts | 13° |
| 2026-04-25 02:00 | 5.47326 | -73.87334 | 24272 ft | 389 kts | 13° |
| 2026-04-25 02:00 | 5.49940 | -73.86683 | 24273 ft | 389 kts | 13° |
| 2026-04-25 02:01 | 5.52569 | -73.85928 | 24266 ft | 389 kts | 19° |
| 2026-04-25 02:01 | 5.55047 | -73.84853 | 24263 ft | 389 kts | 27° |
| 2026-04-25 02:01 | 5.57390 | -73.83540 | 24261 ft | 390 kts | 29° |
| 2026-04-25 02:01 | 5.59755 | -73.82209 | 24261 ft | 390 kts | 29° |
| 2026-04-25 02:02 | 5.62117 | -73.80889 | 24259 ft | 390 kts | 28° |
| 2026-04-25 02:02 | 5.64466 | -73.79579 | 24255 ft | 390 kts | 28° |
| 2026-04-25 02:02 | 5.66857 | -73.78244 | 24253 ft | 389 kts | 28° |
| 2026-04-25 02:02 | 5.69230 | -73.76918 | 24251 ft | 389 kts | 28° |
| 2026-04-25 02:03 | 5.71560 | -73.75616 | 24252 ft | 390 kts | 29° |
| 2026-04-25 02:03 | 5.73966 | -73.74271 | 24247 ft | 390 kts | 29° |
| 2026-04-25 02:03 | 5.76338 | -73.72944 | 24247 ft | 390 kts | 29° |
| 2026-04-25 02:03 | 5.78693 | -73.71626 | 24245 ft | 390 kts | 29° |
| 2026-04-25 02:04 | 5.81038 | -73.70314 | 24242 ft | 389 kts | 29° |
| 2026-04-25 02:04 | 5.83437 | -73.68972 | 24233 ft | 390 kts | 29° |
| 2026-04-25 02:04 | 5.85771 | -73.67666 | 24235 ft | 390 kts | 29° |
| 2026-04-25 02:04 | 5.88140 | -73.66340 | 24229 ft | 390 kts | 29° |
| 2026-04-25 02:05 | 5.90511 | -73.65014 | 24224 ft | 389 kts | 29° |
| 2026-04-25 02:05 | 5.92869 | -73.63694 | 24224 ft | 390 kts | 29° |
| 2026-04-25 02:05 | 5.95247 | -73.62363 | 24219 ft | 390 kts | 29° |
| 2026-04-25 02:05 | 5.97614 | -73.61038 | 24214 ft | 390 kts | 29° |
| 2026-04-25 02:06 | 5.99980 | -73.59713 | 24210 ft | 390 kts | 29° |
| 2026-04-25 02:06 | 6.02359 | -73.58381 | 24277 ft | 392 kts | 29° |
| 2026-04-25 02:06 | 6.04738 | -73.57049 | 24716 ft | 394 kts | 29° |
| 2026-04-25 02:06 | 6.07151 | -73.55698 | 25219 ft | 396 kts | 29° |
| 2026-04-25 02:07 | 6.09559 | -73.54350 | 25671 ft | 399 kts | 29° |
| 2026-04-25 02:07 | 6.11994 | -73.52986 | 26094 ft | 402 kts | 30° |
| 2026-04-25 02:07 | 6.14480 | -73.51593 | 26525 ft | 406 kts | 30° |
| 2026-04-25 02:07 | 6.16954 | -73.50207 | 26948 ft | 409 kts | 30° |
| 2026-04-25 02:08 | 6.19456 | -73.48805 | 27383 ft | 412 kts | 30° |
| 2026-04-25 02:08 | 6.21968 | -73.47398 | 27795 ft | 416 kts | 30° |
| 2026-04-25 02:08 | 6.24504 | -73.45977 | 28188 ft | 419 kts | 30° |
| 2026-04-25 02:08 | 6.27058 | -73.44546 | 28615 ft | 422 kts | 30° |
| 2026-04-25 02:09 | 6.29626 | -73.43106 | 28987 ft | 426 kts | 30° |
| 2026-04-25 02:09 | 6.32222 | -73.41651 | 29127 ft | 428 kts | 30° |
| 2026-04-25 02:09 | 6.34676 | -73.40276 | 29145 ft | 428 kts | 30° |
| 2026-04-25 02:10 | 6.39940 | -73.37323 | 29141 ft | 448 kts | 30° |
| 2026-04-25 02:10 | 6.42698 | -73.35776 | 29133 ft | 460 kts | 30° |
| 2026-04-25 02:10 | 6.45496 | -73.34206 | 29134 ft | 468 kts | 30° |
| 2026-04-25 02:11 | 6.51196 | -73.31010 | 29129 ft | 467 kts | 30° |
| 2026-04-25 02:11 | 6.56859 | -73.27833 | 29124 ft | 467 kts | 30° |
| 2026-04-25 02:12 | 6.62557 | -73.24634 | 29119 ft | 467 kts | 30° |
| 2026-04-25 02:12 | 6.68199 | -73.21466 | 29113 ft | 467 kts | 30° |
| 2026-04-25 02:13 | 6.73904 | -73.18260 | 29109 ft | 467 kts | 30° |
| 2026-04-25 02:13 | 6.79549 | -73.15085 | 29105 ft | 467 kts | 30° |
| 2026-04-25 02:14 | 6.85212 | -73.11903 | 29080 ft | 466 kts | 30° |
| 2026-04-25 02:14 | 6.88027 | -73.10320 | 28710 ft | 464 kts | 30° |
| 2026-04-25 02:14 | 6.90855 | -73.08730 | 27925 ft | 466 kts | 30° |
| 2026-04-25 02:14 | 6.93695 | -73.07132 | 27000 ft | 468 kts | 30° |
| 2026-04-25 02:15 | 6.96514 | -73.05547 | 26463 ft | 461 kts | 30° |
| 2026-04-25 02:15 | 6.99304 | -73.03977 | 25844 ft | 456 kts | 30° |
| 2026-04-25 02:15 | 7.02050 | -73.02432 | 25188 ft | 452 kts | 29° |
| 2026-04-25 02:15 | 7.04779 | -73.00897 | 24722 ft | 443 kts | 29° |
| 2026-04-25 02:16 | 7.07399 | -72.99422 | 24454 ft | 430 kts | 29° |
| 2026-04-25 02:16 | 7.10013 | -72.97951 | 23899 ft | 426 kts | 29° |
| 2026-04-25 02:16 | 7.12601 | -72.96493 | 23257 ft | 423 kts | 29° |
| 2026-04-25 02:16 | 7.15148 | -72.95058 | 22716 ft | 417 kts | 29° |
| 2026-04-25 02:17 | 7.17663 | -72.93641 | 22153 ft | 412 kts | 29° |
| 2026-04-25 02:17 | 7.20153 | -72.92239 | 21586 ft | 408 kts | 29° |
| 2026-04-25 02:17 | 7.22621 | -72.90849 | 21014 ft | 404 kts | 28° |
| 2026-04-25 02:17 | 7.25069 | -72.89470 | 20427 ft | 401 kts | 28° |
| 2026-04-25 02:18 | 7.27484 | -72.88109 | 19843 ft | 398 kts | 28° |
| 2026-04-25 02:18 | 7.29858 | -72.86772 | 19296 ft | 396 kts | 28° |
| 2026-04-25 02:18 | 7.32281 | -72.85407 | 18730 ft | 392 kts | 28° |
| 2026-04-25 02:18 | 7.34688 | -72.84051 | 18111 ft | 390 kts | 28° |
| 2026-04-25 02:19 | 7.37041 | -72.82725 | 17532 ft | 385 kts | 28° |
| 2026-04-25 02:19 | 7.39361 | -72.81418 | 17199 ft | 378 kts | 28° |
| 2026-04-25 02:19 | 7.41589 | -72.80162 | 17113 ft | 364 kts | 28° |
| 2026-04-25 02:19 | 7.43739 | -72.78950 | 17102 ft | 346 kts | 28° |
| 2026-04-25 02:20 | 7.45817 | -72.77778 | 17096 ft | 328 kts | 28° |
| 2026-04-25 02:20 | 7.47756 | -72.76684 | 17092 ft | 312 kts | 28° |
| 2026-04-25 02:20 | 7.49601 | -72.75654 | 17080 ft | 296 kts | 26° |
| 2026-04-25 02:20 | 7.51490 | -72.74914 | 16868 ft | 287 kts | 13° |
| 2026-04-25 02:21 | 7.53428 | -72.74515 | 16868 ft | 289 kts | 10° |
| 2026-04-25 02:21 | 7.55432 | -72.74120 | 16824 ft | 293 kts | 11° |
| 2026-04-25 02:21 | 7.57416 | -72.73713 | 16706 ft | 289 kts | 11° |
| 2026-04-25 02:21 | 7.59385 | -72.73303 | 16404 ft | 287 kts | 11° |
| 2026-04-25 02:22 | 7.61337 | -72.72895 | 16048 ft | 287 kts | 11° |
| 2026-04-25 02:22 | 7.63290 | -72.72488 | 15704 ft | 285 kts | 11° |
| 2026-04-25 02:22 | 7.65221 | -72.72086 | 15355 ft | 284 kts | 11° |
| 2026-04-25 02:22 | 7.67154 | -72.71684 | 15009 ft | 282 kts | 11° |
| 2026-04-25 02:23 | 7.68419 | -72.71422 | 14790 ft | 281 kts | 11° |
| 2026-04-25 02:23 | 7.70303 | -72.71031 | 14450 ft | 280 kts | 11° |
| 2026-04-25 02:23 | 7.71979 | -72.70683 | 14073 ft | 278 kts | 11° |
| 2026-04-25 02:23 | 7.73861 | -72.70292 | 13684 ft | 271 kts | 11° |
| 2026-04-25 02:24 | 7.75643 | -72.69921 | 13546 ft | 253 kts | 11° |
| 2026-04-25 02:24 | 7.77309 | -72.69574 | 13390 ft | 236 kts | 11° |
| 2026-04-25 02:24 | 7.78870 | -72.69249 | 13139 ft | 225 kts | 11° |
| 2026-04-25 02:24 | 7.80403 | -72.68931 | 12698 ft | 224 kts | 11° |
| 2026-04-25 02:25 | 7.81924 | -72.68616 | 12261 ft | 223 kts | 11° |
| 2026-04-25 02:25 | 7.83437 | -72.68303 | 11855 ft | 221 kts | 11° |
| 2026-04-25 02:25 | 7.84944 | -72.67990 | 11441 ft | 220 kts | 11° |
| 2026-04-25 02:25 | 7.86433 | -72.67681 | 11052 ft | 219 kts | 11° |
| 2026-04-25 02:26 | 7.87922 | -72.67371 | 10657 ft | 217 kts | 11° |
| 2026-04-25 02:26 | 7.89418 | -72.67061 | 10140 ft | 224 kts | 11° |
| 2026-04-25 02:26 | 7.90983 | -72.66736 | 9439 ft | 236 kts | 11° |
| 2026-04-25 02:26 | 7.92623 | -72.66396 | 8724 ft | 245 kts | 11° |
| 2026-04-25 02:27 | 7.94311 | -72.66046 | 8021 ft | 252 kts | 11° |
| 2026-04-25 02:27 | 7.96055 | -72.65685 | 7311 ft | 257 kts | 11° |
| 2026-04-25 02:27 | 7.97810 | -72.65320 | 6729 ft | 258 kts | 11° |
| 2026-04-25 02:27 | 7.99563 | -72.64947 | 6181 ft | 256 kts | 15° |
| 2026-04-25 02:28 | 8.01099 | -72.64110 | 5592 ft | 254 kts | 44° |
| 2026-04-25 02:28 | 8.02044 | -72.62599 | 5038 ft | 253 kts | 74° |
| 2026-04-25 02:28 | 8.02136 | -72.60861 | 4576 ft | 248 kts | 99° |
| 2026-04-25 02:28 | 8.01727 | -72.59190 | 4089 ft | 244 kts | 107° |
| 2026-04-25 02:29 | 8.01242 | -72.57597 | 3667 ft | 232 kts | 107° |
| 2026-04-25 02:29 | 8.00835 | -72.56123 | 3455 ft | 206 kts | 104° |
| 2026-04-25 02:29 | 8.00510 | -72.54770 | 3128 ft | 194 kts | 103° |
| 2026-04-25 02:29 | 8.00231 | -72.53447 | 2879 ft | 195 kts | 102° |
| 2026-04-25 02:30 | 7.99967 | -72.52088 | 2924 ft | 194 kts | 101° |
| 2026-04-25 02:30 | 7.99507 | -72.50839 | 2891 ft | 184 kts | 126° |
| 2026-04-25 02:30 | 7.98636 | -72.50087 | 2854 ft | 150 kts | 154° |
| 2026-04-25 02:30 | 7.97696 | -72.49817 | 2808 ft | 137 kts | 175° |
| 2026-04-25 02:31 | 7.96759 | -72.49905 | 2779 ft | 135 kts | 197° |
| 2026-04-25 02:31 | 7.95864 | -72.50203 | 2707 ft | 136 kts | 199° |
| 2026-04-25 02:31 | 7.94823 | -72.50536 | 1572 ft | 176 kts | 198° |
| 2026-04-25 02:31 | 7.93674 | -72.50879 | 1095 ft | 162 kts | 197° |
| 2026-04-25 02:32 | 7.92683 | -72.51175 | 1052 ft | 132 kts | 200° |
| 2026-04-25 02:32 | 7.92083 | -72.51365 | 1049 ft | 27 kts | 197° |
| 2026-04-25 02:32 | 7.92051 | -72.51376 | 1050 ft | 6 kts | 198° |
| 2026-04-25 02:32 | 7.91999 | -72.51391 | 1051 ft | 9 kts | 194° |
| 2026-04-25 02:33 | 7.91927 | -72.51410 | 1052 ft | 12 kts | 195° |
| 2026-04-25 02:33 | 7.91830 | -72.51425 | 1053 ft | 19 kts | 175° |
| 2026-04-25 02:33 | 7.91806 | -72.51438 | 1054 ft | 2 kts | 300° |
| 2026-04-25 02:33 | 7.91832 | -72.51442 | 1055 ft | 8 kts | 7° |
| 2026-04-25 02:34 | 7.92057 | -72.51370 | 1050 ft | 42 kts | 16° |
| 2026-04-25 02:34 | 7.92332 | -72.51287 | 1045 ft | 39 kts | 17° |
| 2026-04-25 02:34 | 7.92597 | -72.51203 | 1042 ft | 40 kts | 17° |
| 2026-04-25 02:34 | 7.92720 | -72.51146 | 1043 ft | 13 kts | 67° |
| 2026-04-25 02:35 | 7.92751 | -72.51085 | 1041 ft | 9 kts | 58° |
| 2026-04-25 02:35 | 7.92772 | -72.51027 | 1039 ft | 9 kts | 93° |
| 2026-04-25 02:35 | 7.92802 | -72.50957 | 1037 ft | 14 kts | 60° |
| 2026-04-25 02:35 | 7.92865 | -72.50895 | 1034 ft | 0 kts | 38° |
| 2026-04-25 02:36 | 7.92871 | -72.50879 | 1034 ft | 4 kts | 95° |
| 2026-04-25 02:36 | 7.92857 | -72.50839 | 1034 ft | 8 kts | 117° |
| 2026-04-25 02:36 | 7.92824 | -72.50780 | 1034 ft | 7 kts | 134° |
| 2026-04-25 02:36 | 7.92794 | -72.50785 | 1035 ft | 4 kts | 202° |
| 2026-04-25 02:37 | 7.92777 | -72.50794 | 1036 ft | 1 kts | 209° |
| 2026-04-25 02:37 | 7.92763 | -72.50802 | 1036 ft | 0 kts | 211° |